Time;durP1;ratioP1;P1;durP2;ratioP2;P2;SDS_P1;SDS_P2;PMS_P1;PMS_P2;Temp;Humidity;BMP_temperature;BMP_pressure;BME280_temperature;BME280_humidity;BME280_pressure;Samples;Min_cycle;Max_cycle;Signal;HPM_P1;HPM_P2
2022/04/05 00:01:38;;;;;;;15.93;2.63;;;7.20;99.90;;;;;;4936957;28;20055;-59
2022/04/05 00:04:04;;;;;;;11.48;2.30;;;7.20;99.90;;;;;;4951515;28;20743;-59
2022/04/05 00:06:30;;;;;;;14.38;2.65;;;7.20;99.90;;;;;;4950377;28;20171;-59
2022/04/05 00:08:55;;;;;;;12.35;2.40;;;7.20;99.90;;;;;;4964479;28;20058;-58
2022/04/05 00:11:21;;;;;;;13.43;2.35;;;7.20;99.90;;;;;;4952270;28;20074;-59
2022/04/05 00:13:47;;;;;;;10.05;2.10;;;7.10;99.90;;;;;;4948981;28;20046;-58
2022/04/05 00:16:13;;;;;;;13.20;2.38;;;7.10;99.90;;;;;;4947707;28;20047;-59
2022/04/05 00:18:39;;;;;;;13.63;2.25;;;7.10;99.90;;;;;;4943423;28;20092;-59
2022/04/05 00:21:06;;;;;;;12.48;2.40;;;7.10;99.90;;;;;;4934582;28;20263;-59
2022/04/05 00:23:32;;;;;;;11.20;2.22;;;7.10;99.90;;;;;;4956273;28;20063;-58
2022/04/05 00:25:58;;;;;;;15.68;3.08;;;7.10;99.90;;;;;;4934177;28;20062;-59
2022/04/05 00:28:23;;;;;;;20.42;3.22;;;7.10;99.90;;;;;;4947985;28;20101;-58
2022/04/05 00:30:49;;;;;;;14.30;2.45;;;7.10;99.90;;;;;;4948848;28;20050;-58
2022/04/05 00:33:15;;;;;;;21.83;3.25;;;7.10;99.90;;;;;;4949210;28;20082;-58
2022/04/05 00:35:41;;;;;;;21.08;3.03;;;7.10;99.90;;;;;;4972526;28;20363;-59
2022/04/05 00:38:08;;;;;;;15.10;2.60;;;7.10;99.90;;;;;;4947705;28;20043;-59
2022/04/05 00:40:36;;;;;;;18.80;2.92;;;7.10;99.90;;;;;;4949227;28;20125;-58
2022/04/05 00:43:05;;;;;;;15.07;2.80;;;7.00;99.90;;;;;;4949863;28;20400;-57
2022/04/05 00:45:35;;;;;;;14.27;2.38;;;7.00;99.90;;;;;;4937139;28;20046;-58
2022/04/05 00:48:02;;;;;;;19.35;2.67;;;7.10;99.90;;;;;;4948554;28;20043;-58
2022/04/05 00:50:31;;;;;;;14.65;2.67;;;7.10;99.90;;;;;;4961813;28;20054;-57
2022/04/05 00:53:00;;;;;;;12.10;2.58;;;7.00;99.90;;;;;;4935896;28;20055;-59
2022/04/05 00:55:27;;;;;;;14.13;2.60;;;7.00;99.90;;;;;;4919808;28;20116;-59
2022/04/05 00:57:57;;;;;;;11.80;2.45;;;7.00;99.90;;;;;;4960033;28;20062;-58
2022/04/05 01:00:23;;;;;;;14.00;2.47;;;7.00;99.90;;;;;;4937370;28;20054;-58
2022/04/05 01:02:52;;;;;;;21.00;2.63;;;7.00;99.90;;;;;;4948613;28;20505;-57
2022/04/05 01:05:19;;;;;;;19.23;2.70;;;7.00;99.90;;;;;;4934656;28;20110;-59
2022/04/05 01:07:47;;;;;;;14.85;2.65;;;7.00;99.90;;;;;;4955867;28;20050;-59
2022/04/05 01:10:13;;;;;;;14.68;2.25;;;7.00;99.90;;;;;;4961578;28;20708;-59
2022/04/05 01:12:39;;;;;;;17.42;2.95;;;7.00;99.90;;;;;;4929606;28;20055;-59
2022/04/05 01:15:05;;;;;;;17.83;2.95;;;7.00;99.90;;;;;;4950082;28;20051;-59
2022/04/05 01:17:31;;;;;;;14.07;2.97;;;7.00;99.90;;;;;;4959284;28;20054;-59
2022/04/05 01:19:57;;;;;;;12.95;2.70;;;6.90;99.90;;;;;;4946342;28;20046;-59
2022/04/05 01:22:23;;;;;;;16.77;2.78;;;7.00;99.90;;;;;;4945376;28;20525;-59
2022/04/05 01:24:49;;;;;;;14.23;2.65;;;6.90;99.90;;;;;;4931787;28;20061;-59
2022/04/05 01:27:19;;;;;;;11.32;2.50;;;6.90;99.90;;;;;;4915067;28;20505;-59
2022/04/05 01:29:47;;;;;;;22.80;2.78;;;6.90;99.90;;;;;;4946522;28;20098;-58
2022/04/05 01:32:13;;;;;;;17.02;2.58;;;6.90;99.90;;;;;;4964523;28;20081;-58
2022/04/05 01:34:39;;;;;;;21.23;3.13;;;6.80;99.90;;;;;;4964441;28;20074;-59
2022/04/05 01:37:10;;;;;;;23.75;2.47;;;6.80;99.90;;;;;;4961285;28;20631;-59
2022/04/05 01:39:38;;;;;;;26.20;2.95;;;6.70;99.90;;;;;;4931012;28;20058;-59
2022/04/05 01:42:07;;;;;;;19.45;3.00;;;6.70;99.90;;;;;;4946490;28;20065;-59
2022/04/05 01:44:34;;;;;;;23.65;2.83;;;6.60;99.90;;;;;;4942160;28;20043;-59
2022/04/05 01:47:09;;;;;;;22.98;3.30;;;6.60;99.90;;;;;;4931402;28;20385;-58
2022/04/05 01:49:36;;;;;;;22.73;2.95;;;6.60;99.90;;;;;;4948179;28;20093;-59
2022/04/05 01:52:03;;;;;;;20.05;2.80;;;6.60;99.90;;;;;;4948748;28;20555;-58
2022/04/05 01:54:29;;;;;;;19.67;3.22;;;6.60;99.90;;;;;;4946071;28;20489;-59
2022/04/05 01:56:54;;;;;;;21.17;3.10;;;6.50;99.90;;;;;;4933517;28;20051;-59
2022/04/05 01:59:23;;;;;;;17.95;3.47;;;6.50;99.90;;;;;;4960748;28;20043;-59
2022/04/05 02:01:49;;;;;;;19.80;2.88;;;6.50;99.90;;;;;;4935149;28;20055;-59
2022/04/05 02:04:15;;;;;;;21.15;3.33;;;6.50;99.90;;;;;;4931956;28;20075;-59
2022/04/05 02:06:42;;;;;;;18.00;2.80;;;6.50;99.90;;;;;;4931483;28;20379;-59
2022/04/05 02:09:10;;;;;;;21.85;3.08;;;6.50;99.90;;;;;;4927600;28;20043;-59
2022/04/05 02:11:36;;;;;;;20.13;3.13;;;6.50;99.90;;;;;;4945875;28;21155;-58
2022/04/05 02:14:02;;;;;;;23.85;3.67;;;6.50;99.90;;;;;;4928417;28;20667;-58
2022/04/05 02:16:28;;;;;;;19.50;3.00;;;6.40;99.90;;;;;;4948742;28;20042;-59
2022/04/05 02:18:54;;;;;;;19.10;2.75;;;6.40;99.90;;;;;;4941723;28;20285;-59
2022/04/05 02:21:20;;;;;;;15.50;2.80;;;6.40;99.90;;;;;;4946891;28;20054;-58
2022/04/05 02:23:45;;;;;;;23.25;3.75;;;6.40;99.90;;;;;;4921200;28;20049;-59
2022/04/05 02:26:12;;;;;;;18.58;3.55;;;6.40;99.90;;;;;;4947090;28;20035;-59
2022/04/05 02:28:38;;;;;;;21.77;3.30;;;6.40;99.90;;;;;;4945105;28;20170;-59
2022/04/05 02:31:04;;;;;;;22.27;3.13;;;6.40;99.90;;;;;;4946171;28;20505;-59
2022/04/05 02:33:30;;;;;;;21.77;3.03;;;6.40;99.90;;;;;;4947292;28;20564;-58
2022/04/05 02:35:56;;;;;;;26.38;3.65;;;6.40;99.90;;;;;;4946659;28;20046;-59
2022/04/05 02:38:22;;;;;;;22.63;3.30;;;6.40;99.90;;;;;;4948524;28;20164;-59
2022/04/05 02:40:48;;;;;;;31.13;3.70;;;6.40;99.90;;;;;;4930334;28;20058;-59
2022/04/05 02:43:13;;;;;;;22.00;3.03;;;6.40;99.90;;;;;;4944955;28;20039;-59
2022/04/05 02:45:39;;;;;;;21.95;3.10;;;6.40;99.90;;;;;;4944756;28;20058;-59
2022/04/05 02:48:06;;;;;;;27.65;4.05;;;6.40;99.90;;;;;;4949215;28;20146;-59
2022/04/05 02:50:32;;;;;;;18.58;3.05;;;6.40;99.90;;;;;;4934646;28;20546;-59
2022/04/05 02:52:58;;;;;;;26.45;3.55;;;6.40;99.90;;;;;;4957237;28;20081;-58
2022/04/05 02:55:24;;;;;;;27.98;2.85;;;6.40;99.90;;;;;;4959960;28;20050;-59
2022/04/05 02:57:52;;;;;;;24.70;3.20;;;6.40;99.90;;;;;;4960054;28;20042;-57
2022/04/05 03:00:19;;;;;;;18.48;3.20;;;6.40;99.90;;;;;;4913400;28;20047;-58
2022/04/05 03:02:46;;;;;;;25.70;4.18;;;6.40;99.90;;;;;;4947773;28;20424;-59
2022/04/05 03:05:13;;;;;;;23.40;2.80;;;6.40;99.90;;;;;;4947230;28;20050;-58
2022/04/05 03:07:40;;;;;;;16.33;3.40;;;6.40;99.90;;;;;;4964596;28;20066;-58
2022/04/05 03:10:08;;;;;;;24.25;3.67;;;6.40;99.90;;;;;;4959208;28;20054;-57
2022/04/05 03:12:35;;;;;;;22.55;3.72;;;6.30;99.90;;;;;;4946634;28;20057;-59
2022/04/05 03:15:02;;;;;;;28.25;2.85;;;6.40;99.90;;;;;;4946821;28;20042;-59
2022/04/05 03:17:28;;;;;;;24.63;3.67;;;6.40;99.90;;;;;;4946516;28;20087;-59
2022/04/05 03:19:54;;;;;;;18.40;2.92;;;6.40;99.90;;;;;;4945450;28;20206;-59
2022/04/05 03:22:20;;;;;;;23.70;2.90;;;6.40;99.90;;;;;;4945313;28;20055;-59
2022/04/05 03:24:46;;;;;;;19.42;2.53;;;6.40;99.90;;;;;;4964686;28;20059;-58
2022/04/05 03:27:12;;;;;;;15.98;2.42;;;6.40;99.90;;;;;;4958173;28;20449;-59
2022/04/05 03:29:38;;;;;;;22.55;3.20;;;6.30;99.90;;;;;;4948032;28;20051;-59
2022/04/05 03:32:05;;;;;;;18.20;2.58;;;6.30;99.90;;;;;;4964356;28;20062;-57
2022/04/05 03:34:31;;;;;;;23.35;3.15;;;6.30;99.90;;;;;;4946609;28;20547;-57
2022/04/05 03:36:57;;;;;;;18.13;2.47;;;6.30;99.90;;;;;;4950112;28;20060;-58
2022/04/05 03:39:23;;;;;;;28.00;3.88;;;6.30;99.90;;;;;;4944618;28;20055;-59
2022/04/05 03:41:49;;;;;;;13.18;2.67;;;6.30;99.90;;;;;;4947944;28;20047;-59
2022/04/05 03:44:16;;;;;;;18.75;2.42;;;6.20;99.90;;;;;;4941716;28;20189;-59
2022/04/05 03:46:41;;;;;;;17.95;2.75;;;6.20;99.90;;;;;;4938934;28;20058;-58
2022/04/05 03:49:07;;;;;;;21.02;2.75;;;6.20;99.90;;;;;;4938974;28;20078;-58
2022/04/05 03:51:33;;;;;;;19.95;3.17;;;6.20;99.90;;;;;;4925966;28;20060;-57
2022/04/05 03:53:59;;;;;;;22.15;2.92;;;6.20;99.90;;;;;;4960039;28;20047;-58
2022/04/05 03:56:25;;;;;;;19.80;3.10;;;6.20;99.90;;;;;;4945597;28;20051;-58
2022/04/05 03:58:51;;;;;;;23.13;3.58;;;6.20;99.90;;;;;;4925488;28;20101;-59
2022/04/05 04:01:17;;;;;;;18.85;2.75;;;6.20;99.90;;;;;;4931976;28;20120;-59
2022/04/05 04:03:43;;;;;;;25.35;3.42;;;6.20;99.90;;;;;;4951703;28;20047;-58
2022/04/05 04:06:09;;;;;;;18.70;3.08;;;6.20;99.90;;;;;;4949452;28;20054;-58
2022/04/05 04:08:35;;;;;;;21.95;3.30;;;6.20;99.90;;;;;;4952206;28;20498;-58
2022/04/05 04:11:02;;;;;;;24.08;3.10;;;6.20;99.90;;;;;;4967759;28;20065;-58
2022/04/05 04:13:28;;;;;;;21.20;3.03;;;6.20;99.90;;;;;;4960420;28;20409;-58
2022/04/05 04:15:56;;;;;;;21.63;3.47;;;6.20;99.90;;;;;;4947884;28;20160;-59
2022/04/05 04:18:22;;;;;;;22.83;3.10;;;6.20;99.90;;;;;;4929806;28;20094;-59
2022/04/05 04:20:48;;;;;;;20.55;3.08;;;6.20;99.90;;;;;;4947055;28;20499;-58
2022/04/05 04:23:15;;;;;;;15.98;2.65;;;6.20;99.90;;;;;;4932018;28;20501;-58
2022/04/05 04:25:42;;;;;;;20.92;3.35;;;6.20;99.90;;;;;;4937757;28;20082;-58
2022/04/05 04:28:08;;;;;;;13.43;3.30;;;6.20;99.90;;;;;;4944638;28;20050;-59
2022/04/05 04:30:36;;;;;;;16.75;2.88;;;6.20;99.90;;;;;;4952280;28;20401;-58
2022/04/05 04:33:02;;;;;;;28.90;3.55;;;6.20;99.90;;;;;;4937358;28;20043;-59
2022/04/05 04:35:29;;;;;;;24.88;3.60;;;6.20;99.90;;;;;;4941644;28;20050;-59
2022/04/05 04:37:55;;;;;;;19.33;3.13;;;6.20;99.90;;;;;;4949025;28;20051;-59
2022/04/05 04:40:21;;;;;;;19.60;2.90;;;6.10;99.90;;;;;;4948881;28;20136;-58
2022/04/05 04:42:47;;;;;;;19.58;2.63;;;6.20;99.90;;;;;;4961186;28;20089;-59
2022/04/05 04:45:13;;;;;;;23.27;3.75;;;6.10;99.90;;;;;;4946644;28;20058;-59
2022/04/05 04:47:40;;;;;;;17.63;2.95;;;6.10;99.90;;;;;;4945694;28;20054;-59
2022/04/05 04:50:08;;;;;;;16.67;3.20;;;6.10;99.90;;;;;;4963539;28;20065;-59
2022/04/05 04:52:34;;;;;;;18.48;2.90;;;6.10;99.90;;;;;;4950055;28;20047;-59
2022/04/05 04:55:00;;;;;;;22.40;3.38;;;6.10;99.90;;;;;;4938755;28;20089;-58
2022/04/05 04:57:26;;;;;;;15.98;2.83;;;6.10;99.90;;;;;;4945564;28;20055;-58
2022/04/05 04:59:52;;;;;;;22.35;3.08;;;6.10;99.90;;;;;;4946191;28;20409;-58
2022/04/05 05:02:22;;;;;;;23.67;3.20;;;6.10;99.90;;;;;;4948035;28;20058;-59
2022/04/05 05:04:49;;;;;;;15.15;2.85;;;6.10;99.90;;;;;;4964884;28;20497;-57
2022/04/05 05:07:15;;;;;;;18.50;3.03;;;6.10;99.90;;;;;;4933261;28;20051;-58
2022/04/05 05:09:41;;;;;;;21.67;3.35;;;6.10;99.90;;;;;;4927378;28;20063;-59
2022/04/05 05:12:10;;;;;;;20.63;3.30;;;6.10;99.90;;;;;;4950003;28;20055;-58
2022/04/05 05:14:37;;;;;;;21.80;2.78;;;6.10;99.90;;;;;;4944916;28;20133;-59
2022/04/05 05:17:03;;;;;;;20.58;3.08;;;6.10;99.90;;;;;;4943840;28;20060;-58
2022/04/05 05:19:29;;;;;;;19.02;2.40;;;6.10;99.90;;;;;;4947748;28;20050;-59
2022/04/05 05:21:55;;;;;;;22.15;2.30;;;6.10;99.90;;;;;;4961884;28;20063;-58
2022/04/05 05:24:21;;;;;;;21.42;2.90;;;6.10;99.90;;;;;;4948072;28;20035;-58
2022/04/05 05:26:46;;;;;;;18.13;3.10;;;6.10;99.90;;;;;;4946105;28;20170;-59
2022/04/05 05:29:12;;;;;;;20.92;2.97;;;6.10;99.90;;;;;;4947606;28;20047;-59
2022/04/05 05:31:39;;;;;;;18.25;3.42;;;6.10;99.90;;;;;;4893339;28;21129;-59
2022/04/05 05:34:05;;;;;;;21.95;3.13;;;6.10;99.90;;;;;;4956525;28;20568;-58
2022/04/05 05:36:31;;;;;;;24.05;4.25;;;6.10;99.90;;;;;;4966488;28;20047;-59
2022/04/05 05:38:56;;;;;;;17.52;3.10;;;6.10;99.90;;;;;;4950759;28;20041;-59
2022/04/05 05:41:22;;;;;;;28.95;3.67;;;6.10;99.90;;;;;;4969083;28;20089;-59
2022/04/05 05:43:48;;;;;;;18.50;3.65;;;6.20;99.90;;;;;;4953404;28;20081;-58
2022/04/05 05:46:14;;;;;;;25.02;2.83;;;6.20;99.90;;;;;;4951997;28;20043;-57
2022/04/05 05:48:41;;;;;;;14.55;2.90;;;6.20;99.90;;;;;;4948911;28;20039;-59
2022/04/05 05:51:07;;;;;;;16.63;2.63;;;6.20;99.90;;;;;;4956942;28;20047;-58
2022/04/05 05:53:34;;;;;;;17.40;3.40;;;6.20;99.90;;;;;;4970376;28;20444;-58
2022/04/05 05:55:59;;;;;;;20.77;3.05;;;6.30;99.90;;;;;;4934887;28;20059;-59
2022/04/05 05:58:25;;;;;;;17.70;3.35;;;6.30;99.90;;;;;;4951747;28;20038;-58
2022/04/05 06:00:51;;;;;;;15.57;3.25;;;6.30;99.90;;;;;;4952060;28;20098;-59
2022/04/05 06:03:18;;;;;;;19.85;3.10;;;6.30;99.90;;;;;;4953921;28;20054;-59
2022/04/05 06:05:46;;;;;;;20.75;3.63;;;6.40;99.90;;;;;;4950265;28;20051;-59
2022/04/05 06:08:13;;;;;;;21.10;3.08;;;6.40;99.90;;;;;;4950190;28;20047;-58
2022/04/05 06:10:39;;;;;;;21.15;3.00;;;6.40;99.90;;;;;;4973441;28;20074;-69
2022/04/05 06:13:06;;;;;;;16.52;2.65;;;6.50;99.90;;;;;;4945867;28;20043;-62
2022/04/05 06:15:32;;;;;;;16.35;2.72;;;6.50;99.90;;;;;;4955781;28;20493;-63
2022/04/05 06:17:58;;;;;;;20.10;3.17;;;6.50;99.90;;;;;;4930267;28;20477;-63
2022/04/05 06:20:25;;;;;;;15.93;2.80;;;6.50;99.90;;;;;;4961379;28;20083;-63
2022/04/05 06:22:52;;;;;;;15.27;2.92;;;6.60;99.90;;;;;;4938578;28;20084;-62
2022/04/05 06:25:21;;;;;;;20.77;2.72;;;6.60;99.90;;;;;;4969270;28;20122;-63
2022/04/05 06:27:48;;;;;;;19.77;2.85;;;6.60;99.90;;;;;;4940788;28;20039;-63
2022/04/05 06:30:15;;;;;;;14.32;2.83;;;6.60;99.90;;;;;;4951890;28;20055;-62
2022/04/05 06:32:41;;;;;;;14.60;3.13;;;6.60;99.90;;;;;;4940546;28;20463;-63
2022/04/05 06:35:08;;;;;;;16.63;2.90;;;6.70;99.90;;;;;;4957191;28;20035;-63
2022/04/05 06:37:38;;;;;;;11.77;3.33;;;6.70;99.90;;;;;;4952264;28;20374;-63
2022/04/05 06:40:06;;;;;;;16.10;2.85;;;6.70;99.90;;;;;;4929024;28;20061;-63
2022/04/05 06:42:32;;;;;;;17.85;3.13;;;6.70;99.90;;;;;;4971689;28;20050;-63
2022/04/05 06:44:58;;;;;;;23.55;2.70;;;6.80;99.90;;;;;;4961862;28;20073;-63
2022/04/05 06:47:24;;;;;;;19.65;2.75;;;6.80;99.90;;;;;;4934964;28;20058;-63
2022/04/05 06:49:50;;;;;;;18.95;3.20;;;6.80;99.90;;;;;;4965886;28;20126;-63
2022/04/05 06:52:16;;;;;;;15.55;2.85;;;6.90;99.90;;;;;;4945626;28;20042;-63
2022/04/05 06:54:42;;;;;;;16.67;2.95;;;7.00;99.90;;;;;;4953329;28;20050;-63
2022/04/05 06:57:09;;;;;;;22.50;3.53;;;7.00;99.90;;;;;;4965338;28;20038;-63
2022/04/05 06:59:36;;;;;;;12.63;2.47;;;7.00;99.90;;;;;;4952078;28;20139;-63
2022/04/05 07:02:02;;;;;;;16.60;2.97;;;7.10;99.90;;;;;;4961941;28;20062;-63
2022/04/05 07:04:29;;;;;;;18.38;3.80;;;7.20;99.90;;;;;;4956228;28;20047;-63
2022/04/05 07:06:55;;;;;;;19.05;3.13;;;7.20;99.90;;;;;;4938571;28;20169;-62
2022/04/05 07:09:22;;;;;;;16.52;2.97;;;7.20;99.90;;;;;;4936868;28;20091;-62
2022/04/05 07:11:49;;;;;;;13.13;2.83;;;7.30;99.90;;;;;;4922404;28;20043;-62
2022/04/05 07:14:15;;;;;;;17.00;2.80;;;7.30;99.90;;;;;;4938652;28;20138;-63
2022/04/05 07:16:40;;;;;;;10.57;2.20;;;7.30;99.90;;;;;;4967070;28;20126;-63
2022/04/05 07:19:06;;;;;;;15.63;3.13;;;7.40;99.90;;;;;;4945423;28;20133;-62
2022/04/05 07:21:32;;;;;;;13.77;3.42;;;7.40;99.90;;;;;;4953720;28;20063;-63
2022/04/05 07:23:58;;;;;;;9.25;2.72;;;7.40;99.90;;;;;;4944735;28;20779;-62
2022/04/05 07:26:24;;;;;;;18.17;2.92;;;7.40;99.90;;;;;;4936161;28;20058;-62
2022/04/05 07:28:50;;;;;;;11.77;2.50;;;7.50;99.90;;;;;;4935020;28;20549;-63
2022/04/05 07:31:15;;;;;;;17.63;2.95;;;7.50;99.90;;;;;;4936644;28;20075;-63
2022/04/05 07:33:41;;;;;;;13.23;2.70;;;7.50;99.90;;;;;;4925759;28;20459;-63
2022/04/05 07:36:07;;;;;;;13.18;2.95;;;7.50;99.90;;;;;;4953675;28;20209;-62
2022/04/05 07:38:33;;;;;;;15.95;3.50;;;7.50;99.90;;;;;;4957105;28;20114;-63
2022/04/05 07:41:00;;;;;;;10.85;2.90;;;7.50;99.90;;;;;;4943711;28;20055;-62
2022/04/05 07:43:28;;;;;;;14.93;3.28;;;7.50;99.90;;;;;;4931533;28;20053;-63
2022/04/05 07:45:54;;;;;;;12.43;2.78;;;7.50;99.90;;;;;;4941865;28;20605;-62
2022/04/05 07:48:28;;;;;;;12.35;2.65;;;7.50;99.90;;;;;;4939533;28;20477;-63
2022/04/05 07:50:55;;;;;;;14.13;2.80;;;7.50;99.90;;;;;;4958392;28;20070;-63
2022/04/05 07:53:21;;;;;;;13.68;2.72;;;7.50;99.90;;;;;;4956389;28;20077;-63
2022/04/05 07:55:46;;;;;;;14.30;2.72;;;7.50;99.90;;;;;;4954697;28;20480;-63
2022/04/05 07:58:13;;;;;;;12.52;2.70;;;7.50;99.90;;;;;;4956137;28;20489;-62
2022/04/05 08:00:39;;;;;;;17.88;3.05;;;7.60;99.90;;;;;;4942883;28;20582;-63
2022/04/05 08:03:05;;;;;;;13.38;2.47;;;7.60;99.90;;;;;;4943405;28;20054;-63
2022/04/05 08:05:30;;;;;;;14.38;2.67;;;7.60;99.90;;;;;;4938577;28;20059;-63
2022/04/05 08:07:56;;;;;;;14.05;2.95;;;7.50;99.90;;;;;;4956293;28;20054;-63
2022/04/05 08:10:22;;;;;;;10.70;3.55;;;7.60;99.90;;;;;;4956843;28;20051;-63
2022/04/05 08:12:49;;;;;;;12.13;3.13;;;7.60;99.90;;;;;;4958055;28;20401;-63
2022/04/05 08:15:21;;;;;;;14.70;2.83;;;7.60;99.90;;;;;;4941731;28;20098;-63
2022/04/05 08:17:47;;;;;;;14.88;2.72;;;7.60;99.90;;;;;;4938599;28;20044;-63
2022/04/05 08:20:14;;;;;;;15.63;3.05;;;7.70;99.90;;;;;;4938418;28;20113;-63
2022/04/05 08:22:40;;;;;;;12.68;2.63;;;7.80;99.90;;;;;;4958688;28;20417;-63
2022/04/05 08:25:07;;;;;;;20.05;3.40;;;7.80;99.90;;;;;;4939705;28;20086;-63
2022/04/05 08:27:33;;;;;;;12.05;2.65;;;7.80;99.90;;;;;;4972514;28;20460;-63
2022/04/05 08:30:00;;;;;;;10.13;2.83;;;7.90;99.90;;;;;;4955668;28;20126;-64
2022/04/05 08:32:27;;;;;;;14.95;2.83;;;7.90;99.90;;;;;;4943293;28;20374;-63
2022/04/05 08:34:53;;;;;;;18.45;2.95;;;7.90;99.90;;;;;;4945710;28;20761;-63
2022/04/05 08:37:19;;;;;;;12.18;2.65;;;8.00;99.90;;;;;;4971360;28;20097;-63
2022/04/05 08:39:44;;;;;;;16.00;3.17;;;8.10;99.90;;;;;;4986583;28;20112;-63
2022/04/05 08:42:12;;;;;;;14.20;2.75;;;8.20;99.90;;;;;;4939991;28;20061;-63
2022/04/05 08:44:38;;;;;;;18.85;3.65;;;8.30;99.90;;;;;;4956162;28;20375;-63
2022/04/05 08:47:04;;;;;;;18.65;3.53;;;8.30;99.90;;;;;;4971531;28;20058;-63
2022/04/05 08:49:31;;;;;;;7.90;2.42;;;8.40;99.90;;;;;;4939475;28;20051;-63
2022/04/05 08:51:57;;;;;;;12.05;2.60;;;8.40;99.90;;;;;;4938874;28;20051;-63
2022/04/05 08:54:23;;;;;;;14.38;3.20;;;8.40;99.90;;;;;;4928634;28;20057;-63
2022/04/05 08:56:50;;;;;;;14.63;3.67;;;8.40;99.90;;;;;;4941277;28;20412;-63
2022/04/05 08:59:16;;;;;;;12.82;2.92;;;8.40;99.90;;;;;;4935985;28;20130;-63
2022/04/05 09:01:43;;;;;;;11.80;3.13;;;8.40;99.90;;;;;;4937587;28;20112;-63
2022/04/05 09:04:10;;;;;;;9.65;2.60;;;8.50;99.90;;;;;;4957110;28;20053;-63
2022/04/05 09:06:37;;;;;;;12.38;3.13;;;8.50;99.90;;;;;;4955337;28;20066;-63
2022/04/05 09:09:17;;;;;;;16.67;2.90;;;8.50;99.90;;;;;;4955116;28;20055;-63
2022/04/05 09:11:50;;;;;;;13.48;3.13;;;8.50;99.90;;;;;;4957672;28;20082;-62
2022/04/05 09:14:42;;;;;;;15.73;2.83;;;8.50;99.90;;;;;;4939847;28;20047;-62
2022/04/05 09:17:12;;;;;;;11.73;2.35;;;8.50;99.90;;;;;;4941496;28;20086;-63
2022/04/05 09:19:42;;;;;;;8.70;2.63;;;8.60;99.90;;;;;;4945975;28;20544;-63
2022/04/05 09:22:09;;;;;;;7.85;2.78;;;8.60;99.90;;;;;;4956172;28;20109;-63
2022/04/05 09:24:40;;;;;;;10.50;2.90;;;8.60;99.90;;;;;;4945424;28;20137;-64
2022/04/05 09:27:06;;;;;;;9.38;2.70;;;8.70;99.90;;;;;;4955410;28;20043;-63
2022/04/05 09:29:43;;;;;;;5.43;2.05;;;8.70;99.90;;;;;;4971157;28;20051;-63
2022/04/05 09:32:11;;;;;;;7.00;2.20;;;8.70;99.90;;;;;;4944428;28;20130;-63
2022/04/05 09:34:57;;;;;;;9.30;2.35;;;8.80;99.90;;;;;;4963547;28;20054;-62
2022/04/05 09:37:28;;;;;;;10.98;2.65;;;8.80;99.90;;;;;;4955763;28;20085;-63
2022/04/05 09:40:13;;;;;;;7.13;2.55;;;8.80;99.90;;;;;;4959613;28;20058;-63
2022/04/05 09:42:57;;;;;;;8.65;3.08;;;8.80;99.90;;;;;;4967980;28;20055;-63
2022/04/05 09:45:46;;;;;;;6.68;2.72;;;8.90;99.90;;;;;;4953066;28;20201;-62
2022/04/05 09:48:13;;;;;;;7.47;2.90;;;8.90;99.90;;;;;;4932780;28;20362;-62
2022/04/05 09:51:05;;;;;;;9.82;2.88;;;8.90;99.90;;;;;;4954272;28;20054;-62
2022/04/05 09:53:46;;;;;;;11.27;3.00;;;8.90;99.90;;;;;;4942018;28;20051;-63
2022/04/05 09:56:24;;;;;;;12.57;2.90;;;8.90;99.90;;;;;;4968183;28;20043;-63
2022/04/05 09:58:55;;;;;;;11.63;3.40;;;8.90;99.90;;;;;;4957803;28;20106;-63
2022/04/05 10:01:25;;;;;;;6.30;2.65;;;8.90;99.90;;;;;;4939346;28;20062;-63
2022/04/05 10:04:08;;;;;;;11.52;3.00;;;8.90;99.90;;;;;;4937915;28;20500;-63
2022/04/05 10:06:38;;;;;;;11.07;3.30;;;8.90;99.90;;;;;;4953861;28;20069;-62
2022/04/05 10:09:05;;;;;;;9.88;3.28;;;8.90;99.90;;;;;;4924060;28;20051;-63
2022/04/05 10:11:35;;;;;;;8.05;2.70;;;9.00;99.90;;;;;;4940508;28;20057;-63
2022/04/05 10:14:02;;;;;;;10.27;2.60;;;9.00;99.90;;;;;;4946065;28;20467;-64
2022/04/05 10:16:29;;;;;;;4.07;2.05;;;9.00;99.90;;;;;;4968285;28;20146;-63
2022/04/05 10:19:00;;;;;;;6.55;2.25;;;9.00;99.90;;;;;;4954447;28;20043;-63
2022/04/05 10:21:28;;;;;;;4.03;1.88;;;9.00;99.90;;;;;;4963057;28;20583;-63
2022/04/05 10:23:55;;;;;;;4.45;2.08;;;8.90;99.90;;;;;;4967288;28;20050;-63
2022/04/05 10:26:27;;;;;;;7.50;2.10;;;9.00;99.90;;;;;;4946431;28;20515;-63
2022/04/05 10:29:00;;;;;;;8.68;1.70;;;9.00;99.90;;;;;;4952143;28;20213;-63
2022/04/05 10:31:44;;;;;;;5.28;1.70;;;9.00;99.90;;;;;;4968701;28;20050;-62
2022/04/05 10:34:30;;;;;;;3.78;1.65;;;9.10;99.90;;;;;;4939508;28;20114;-63
2022/04/05 10:37:18;;;;;;;3.25;1.23;;;9.10;99.90;;;;;;4953148;28;20390;-63
2022/04/05 10:39:56;;;;;;;3.55;1.10;;;9.10;99.90;;;;;;4967619;28;20516;-63
2022/04/05 10:42:25;;;;;;;2.72;1.60;;;9.20;99.90;;;;;;4970920;28;20053;-62
2022/04/05 10:45:08;;;;;;;2.75;1.50;;;9.10;99.90;;;;;;4930467;28;20043;-63
2022/04/05 10:48:13;;;;;;;2.78;1.73;;;9.10;99.90;;;;;;4952553;28;20054;-63
2022/04/05 10:50:45;;;;;;;2.15;1.55;;;9.10;99.90;;;;;;4954439;28;20798;-63
2022/04/05 10:53:22;;;;;;;3.22;1.73;;;9.20;99.90;;;;;;4955433;28;21179;-62
2022/04/05 10:56:03;;;;;;;3.92;1.58;;;9.30;99.90;;;;;;4967844;28;20051;-63
2022/04/05 10:58:33;;;;;;;3.00;1.60;;;9.30;99.90;;;;;;4929096;28;20394;-63
2022/04/05 11:01:19;;;;;;;2.40;1.52;;;9.40;99.90;;;;;;4955235;28;20481;-63
2022/04/05 11:04:18;;;;;;;3.22;1.70;;;9.50;99.90;;;;;;4933741;28;20413;-63
2022/04/05 11:07:02;;;;;;;2.90;1.58;;;9.50;99.90;;;;;;4944097;28;20050;-63
2022/04/05 11:09:33;;;;;;;4.43;1.65;;;9.50;99.90;;;;;;4939221;28;20408;-63
2022/04/05 11:12:04;;;;;;;2.63;1.67;;;9.50;99.90;;;;;;4970645;28;20136;-63
2022/04/05 11:14:41;;;;;;;2.42;1.70;;;9.50;99.90;;;;;;4933697;28;20051;-61
2022/04/05 11:17:09;;;;;;;3.88;1.90;;;9.40;99.90;;;;;;4943247;28;20057;-63
2022/04/05 11:19:42;;;;;;;4.75;2.20;;;9.40;99.90;;;;;;4932535;28;20536;-63
2022/04/05 11:22:20;;;;;;;2.63;2.10;;;9.40;99.90;;;;;;4970713;28;20071;-63
2022/04/05 11:24:55;;;;;;;2.47;2.22;;;9.40;99.90;;;;;;4984383;28;21201;-63
2022/04/05 11:27:49;;;;;;;2.63;2.00;;;9.40;99.90;;;;;;4935023;28;20500;-63
2022/04/05 11:30:21;;;;;;;2.70;1.75;;;9.50;99.90;;;;;;4952573;28;20417;-62
2022/04/05 11:33:15;;;;;;;4.70;1.90;;;9.50;99.90;;;;;;4952358;28;20501;-63
2022/04/05 11:35:50;;;;;;;3.88;2.13;;;9.50;99.90;;;;;;4954411;28;20086;-63
2022/04/05 11:38:19;;;;;;;2.65;2.03;;;9.50;99.90;;;;;;4951812;28;20481;-63
2022/04/05 11:40:46;;;;;;;3.22;2.20;;;9.50;99.90;;;;;;4967678;28;20146;-63
2022/04/05 11:43:29;;;;;;;3.78;2.10;;;9.60;99.90;;;;;;4934186;28;20050;-63
2022/04/05 11:46:19;;;;;;;4.07;2.10;;;9.60;99.90;;;;;;4952961;28;20090;-62
2022/04/05 11:48:52;;;;;;;2.28;2.08;;;9.60;99.90;;;;;;4936031;28;20050;-63
2022/04/05 11:51:20;;;;;;;2.15;1.90;;;9.60;99.90;;;;;;4968524;28;20409;-63
2022/04/05 11:53:46;;;;;;;4.60;1.90;;;9.60;99.90;;;;;;4968782;28;20055;-63
2022/04/05 11:56:24;;;;;;;2.03;1.63;;;9.60;99.90;;;;;;4960429;28;20096;-63
2022/04/05 11:58:51;;;;;;;1.77;1.60;;;9.70;99.90;;;;;;4965358;28;20133;-63
2022/04/05 12:01:25;;;;;;;1.70;1.60;;;9.60;99.90;;;;;;4971827;28;20066;-63
2022/04/05 12:03:58;;;;;;;2.90;1.75;;;9.70;99.90;;;;;;4941197;28;20166;-63
2022/04/05 12:06:26;;;;;;;;;;;9.70;99.90;;;;;;4960060;28;20109;-63
2022/04/05 12:08:54;;;;;;;1.85;1.75;;;9.80;99.90;;;;;;4965699;28;19922;-62
2022/04/05 12:11:24;;;;;;;2.70;1.80;;;9.90;99.90;;;;;;4952085;28;20548;-59
2022/04/05 12:13:57;;;;;;;3.85;1.90;;;10.00;99.90;;;;;;4949594;28;20770;-59
2022/04/05 12:16:26;;;;;;;1.92;1.83;;;10.20;99.90;;;;;;4953048;28;20130;-59
2022/04/05 12:18:53;;;;;;;2.25;1.90;;;10.20;99.90;;;;;;4947891;28;20496;-62
2022/04/05 12:21:21;;;;;;;1.90;1.80;;;10.30;99.90;;;;;;4950623;28;20113;-63
2022/04/05 12:23:47;;;;;;;1.85;1.75;;;10.40;99.90;;;;;;4951299;28;20043;-62
2022/04/05 12:26:23;;;;;;;1.83;1.50;;;10.40;99.90;;;;;;4971462;28;20216;-62
2022/04/05 12:28:49;;;;;;;1.65;1.55;;;10.50;99.90;;;;;;4937407;28;20047;-62
2022/04/05 12:31:17;;;;;;;1.77;1.67;;;10.50;99.90;;;;;;4926929;28;20081;-62
2022/04/05 12:34:02;;;;;;;2.15;1.70;;;10.60;99.90;;;;;;4926333;28;20050;-62
2022/04/05 12:36:34;;;;;;;1.88;1.77;;;10.70;99.90;;;;;;4936978;28;20044;-63
2022/04/05 12:39:05;;;;;;;2.30;2.10;;;10.70;99.90;;;;;;4937010;28;20050;-62
2022/04/05 12:41:43;;;;;;;2.08;1.77;;;10.70;99.90;;;;;;4931974;28;20089;-63
2022/04/05 12:44:15;;;;;;;2.20;2.00;;;10.70;99.90;;;;;;4952237;28;20584;-62
2022/04/05 12:46:59;;;;;;;2.35;2.03;;;10.70;99.90;;;;;;4968772;28;20046;-62
2022/04/05 12:49:35;;;;;;;2.38;2.17;;;10.70;99.90;;;;;;4952135;28;20118;-61
2022/04/05 12:52:20;;;;;;;3.55;2.22;;;10.70;99.90;;;;;;4944038;28;20085;-63
2022/04/05 12:54:55;;;;;;;3.75;2.40;;;10.70;99.90;;;;;;4956313;28;20504;-62
2022/04/05 12:57:31;;;;;;;2.50;2.30;;;10.70;99.90;;;;;;4943109;28;20564;-61